Time;durP1;ratioP1;P1;durP2;ratioP2;P2;SDS_P1;SDS_P2;PMS_P1;PMS_P2;Temp;Humidity;BMP_temperature;BMP_pressure;BME280_temperature;BME280_humidity;BME280_pressure;Samples;Min_cycle;Max_cycle;Signal;HPM_P1;HPM_P2
2021/05/11 00:01:38;;;;;;;;;2.00;2.00;;;;;20.63;18.88;99185.09;4997275;28;8827;-41
2021/05/11 00:04:04;;;;;;;;;2.00;2.00;;;;;20.63;18.82;99196.03;4999998;28;8827;-42
2021/05/11 00:06:29;;;;;;;;;1.00;1.00;;;;;20.65;18.71;99209.41;5001548;28;8795;-41
2021/05/11 00:08:54;;;;;;;;;2.00;2.00;;;;;20.65;18.70;99214.88;4995123;28;8813;-41
2021/05/11 00:11:19;;;;;;;;;2.00;2.00;;;;;20.66;18.62;99217.28;4979907;28;8803;-41
2021/05/11 00:13:45;;;;;;;;;1.00;1.00;;;;;20.66;18.75;99227.44;4999442;28;8986;-41
2021/05/11 00:16:10;;;;;;;;;1.50;1.50;;;;;20.67;18.76;99221.63;4995321;28;9797;-41
2021/05/11 00:18:36;;;;;;;;;1.75;1.00;;;;;20.67;18.54;99223.56;4999279;28;8816;-41
2021/05/11 00:21:01;;;;;;;;;1.75;1.75;;;;;20.66;18.81;99222.75;5001184;28;9274;-41
2021/05/11 00:23:27;;;;;;;;;2.00;2.00;;;;;20.65;18.62;99215.72;4993612;28;8844;-41
2021/05/11 00:25:53;;;;;;;;;2.00;2.00;;;;;20.70;18.57;99229.16;4998650;28;8796;-41
2021/05/11 00:28:18;;;;;;;;;1.00;1.00;;;;;20.70;18.48;99233.84;4995789;28;8800;-41
2021/05/11 00:30:43;;;;;;;;;1.00;1.00;;;;;20.69;18.31;99221.28;4988023;28;8772;-41
2021/05/11 00:33:09;;;;;;;;;1.00;1.00;;;;;20.68;18.31;99220.47;4982975;28;8838;-41
2021/05/11 00:35:34;;;;;;;;;1.75;1.75;;;;;20.71;18.35;99228.00;5003831;28;8824;-41
2021/05/11 00:38:00;;;;;;;;;1.00;1.00;;;;;20.71;18.31;99235.44;5003484;28;8790;-41
2021/05/11 00:40:25;;;;;;;;;1.00;1.00;;;;;20.72;18.17;99231.53;4978682;28;8826;-41
2021/05/11 00:42:50;;;;;;;;;1.50;1.50;;;;;20.71;18.22;99229.97;4974117;28;9582;-41
2021/05/11 00:45:16;;;;;;;;;1.25;1.25;;;;;20.74;18.36;99232.00;4973640;28;8789;-41
2021/05/11 00:47:42;;;;;;;;;1.00;1.00;;;;;20.74;18.11;99241.03;4982922;28;8935;-41
2021/05/11 00:50:08;;;;;;;;;2.00;2.00;;;;;20.74;18.14;99237.50;4992542;28;8885;-41
2021/05/11 00:52:34;;;;;;;;;1.00;1.00;;;;;20.77;18.12;99251.31;4997612;28;8783;-41
2021/05/11 00:54:59;;;;;;;;;1.00;1.00;;;;;20.75;18.29;99250.81;4993292;28;8785;-41
2021/05/11 00:57:25;;;;;;;;;1.00;1.00;;;;;20.74;18.22;99254.72;4985742;28;9625;-41
2021/05/11 00:59:51;;;;;;;;;1.00;1.00;;;;;20.77;18.08;99262.28;4985833;28;9597;-41
2021/05/11 01:02:17;;;;;;;;;1.40;1.40;;;;;20.79;18.01;99265.47;4994567;28;8815;-41
2021/05/11 01:04:42;;;;;;;;;1.00;1.00;;;;;20.78;18.12;99263.06;4980869;28;8945;-41
2021/05/11 01:07:08;;;;;;;;;1.00;1.00;;;;;20.77;17.92;99256.78;4976051;28;8801;-41
2021/05/11 01:09:33;;;;;;;;;1.00;1.00;;;;;20.77;17.73;99259.53;4971456;28;8814;-41
2021/05/11 01:11:59;;;;;;;;;1.00;1.00;;;;;20.79;17.65;99267.38;4977003;28;8793;-41
2021/05/11 01:14:26;;;;;;;;;1.00;1.00;;;;;20.80;17.73;99261.56;4976370;28;8799;-41
2021/05/11 01:16:55;;;;;;;;;1.00;1.00;;;;;20.79;17.87;99262.72;4996539;28;10258;-41
2021/05/11 01:27:04;;;;;;;;;1.00;1.00;;;;;20.82;17.97;99260.44;4996612;28;8858;-41
2021/05/11 01:50:48;;;;;;;;;1.00;1.00;;;;;20.88;17.54;99275.47;5003480;28;8990;-44
2021/05/11 02:22:49;;;;;;;;;1.00;1.00;;;;;20.92;17.52;99312.03;5005269;28;8848;-43
2021/05/11 02:25:15;;;;;;;;;1.00;1.00;;;;;20.89;17.33;99313.50;4998241;28;8777;-44
2021/05/11 02:27:42;;;;;;;;;1.00;1.00;;;;;20.92;17.35;99320.25;4994762;28;8798;-43
2021/05/11 02:30:09;;;;;;;;;1.00;1.00;;;;;21.02;17.10;99321.72;4989744;28;8807;-44
2021/05/11 02:32:39;;;;;;;;;1.20;1.20;;;;;21.17;17.28;99313.56;5001812;28;8835;-44
2021/05/11 02:35:05;;;;;;;;;1.00;1.00;;;;;21.28;18.23;99319.38;4998039;28;8826;-44
2021/05/11 02:37:31;;;;;;;;;1.00;1.00;;;;;21.26;19.30;99318.91;4983977;28;8826;-44
2021/05/11 02:39:56;;;;;;;;;1.00;1.00;;;;;21.20;19.79;99327.75;4995121;28;8796;-44
2021/05/11 02:42:22;;;;;;;;;1.00;1.00;;;;;21.12;20.27;99334.94;4990667;28;8819;-44
2021/05/11 02:44:48;;;;;;;;;1.00;1.00;;;;;21.02;21.16;99333.50;4982493;28;8791;-44
2021/05/11 02:47:13;;;;;;;;;1.00;1.00;;;;;20.94;21.39;99343.44;4977993;28;8929;-44
2021/05/11 02:49:50;;;;;;;;;1.00;1.00;;;;;20.91;21.82;99337.84;5001851;28;8812;-43
2021/05/11 02:52:15;;;;;;;;;1.00;1.00;;;;;20.85;22.16;99344.72;5000804;28;8800;-44
2021/05/11 02:54:41;;;;;;;;;1.00;1.00;;;;;20.78;22.40;99337.84;5002079;28;8811;-44
2021/05/11 02:57:07;;;;;;;;;1.00;1.00;;;;;20.73;22.55;99334.56;4998064;28;8792;-44
2021/05/11 02:59:33;;;;;;;;;1.00;1.00;;;;;20.76;21.86;99340.16;4998410;28;8832;-43
2021/05/11 03:01:59;;;;;;;;;1.00;1.00;;;;;20.93;20.85;99352.81;4999904;28;8836;-43
2021/05/11 03:04:24;;;;;;;;;1.00;1.00;;;;;21.04;20.14;99355.88;4980586;28;8865;-44
2021/05/11 03:06:56;;;;;;;;;1.00;1.00;;;;;20.93;19.88;99369.28;4979341;28;8799;-44
2021/05/11 03:09:21;;;;;;;;;1.00;1.00;;;;;20.86;19.87;99376.44;4988991;28;8895;-44
2021/05/11 03:11:47;;;;;;;;;1.00;1.00;;;;;20.85;19.85;99388.56;4997353;28;8969;-43
2021/05/11 03:14:12;;;;;;;;;1.00;1.00;;;;;20.83;19.22;99405.38;4984380;28;8805;-41
2021/05/11 03:16:37;;;;;;;;;1.00;1.00;;;;;20.77;19.29;99391.09;4980590;28;8859;-41
2021/05/11 03:19:03;;;;;;;;;1.00;1.00;;;;;20.80;18.91;99393.13;4981616;28;8810;-41
2021/05/11 03:21:28;;;;;;;;;1.00;1.00;;;;;20.79;18.91;99399.78;4986114;28;8823;-41
2021/05/11 03:23:54;;;;;;;;;1.00;1.00;;;;;20.77;18.85;99404.78;5002345;28;8780;-41
2021/05/11 03:26:19;;;;;;;;;1.80;1.80;;;;;20.78;18.86;99409.13;4996255;28;8808;-41
2021/05/11 03:28:45;;;;;;;;;1.00;1.00;;;;;20.79;18.51;99418.13;4983022;28;8823;-42
2021/05/11 03:31:10;;;;;;;;;1.00;1.00;;;;;20.78;18.46;99414.59;4974520;28;8805;-41
2021/05/11 03:33:35;;;;;;;;;1.00;1.00;;;;;20.76;18.59;99425.09;4975266;28;9553;-41
2021/05/11 03:36:01;;;;;;;;;1.00;1.00;;;;;20.78;18.72;99422.81;4986128;28;8923;-41
2021/05/11 03:38:26;;;;;;;;;1.00;1.00;;;;;20.80;18.17;99406.84;5000899;28;8911;-41
2021/05/11 03:40:53;;;;;;;;;1.00;1.00;;;;;20.81;18.41;99421.34;5000734;28;11542;-41
2021/05/11 03:43:24;;;;;;;;;1.00;1.00;;;;;20.86;18.05;99412.91;4997150;28;8953;-41
2021/05/11 03:45:55;;;;;;;;;1.00;1.00;;;;;20.89;17.93;99403.19;4987802;28;8806;-40
2021/05/11 03:48:20;;;;;;;;;2.00;2.00;;;;;20.87;17.96;99413.69;4975216;28;8779;-41
2021/05/11 03:50:46;;;;;;;;;1.50;1.00;;;;;20.88;17.99;99416.09;4984347;28;8773;-41
2021/05/11 03:53:11;;;;;;;;;1.00;1.00;;;;;20.90;18.04;99407.53;5000390;28;8792;-41
2021/05/11 03:55:36;;;;;;;;;1.00;1.00;;;;;20.89;17.72;99401.22;4999291;28;8836;-41
2021/05/11 03:58:02;;;;;;;;;1.00;1.00;;;;;20.90;17.77;99385.59;4980932;28;8791;-41
2021/05/11 04:00:27;;;;;;;;;1.00;1.00;;;;;20.89;18.04;99395.75;4977072;28;8822;-41
2021/05/11 04:02:52;;;;;;;;;1.00;1.00;;;;;20.89;17.84;99397.69;4981355;28;8777;-41
2021/05/11 04:05:20;;;;;;;;;1.00;1.00;;;;;20.91;18.06;99398.16;4980155;28;8771;-41
2021/05/11 04:07:47;;;;;;;;;1.00;1.00;;;;;20.91;17.70;99407.16;4978179;28;8820;-41
2021/05/11 04:10:39;;;;;;;;;1.00;1.00;;;;;20.95;17.73;99410.84;4981620;28;8771;-41
2021/05/11 04:18:26;;;;;;;;;1.00;1.00;;;;;20.95;17.41;99440.22;4989462;28;8781;-41
2021/05/11 04:20:52;;;;;;;;;1.00;1.00;;;;;20.99;17.45;99449.34;5000101;28;8831;-41
2021/05/11 04:23:17;;;;;;;;;1.00;1.00;;;;;20.96;17.33;99450.03;5000821;28;8943;-41
2021/05/11 04:25:43;;;;;;;;;1.00;1.00;;;;;20.96;17.52;99456.28;4993101;28;8812;-41
2021/05/11 04:28:08;;;;;;;;;1.00;1.00;;;;;20.97;17.48;99460.66;4995594;28;8802;-41
2021/05/11 04:30:33;;;;;;;;;1.00;1.00;;;;;20.98;17.58;99465.00;4989062;28;8787;-41
2021/05/11 04:32:59;;;;;;;;;1.00;1.00;;;;;20.96;17.54;99463.72;4983927;28;8906;-41
2021/05/11 04:35:25;;;;;;;;;2.00;2.00;;;;;20.98;17.50;99458.69;5000270;28;8800;-41
2021/05/11 04:37:50;;;;;;;;;1.00;1.00;;;;;21.00;17.59;99459.16;4997729;28;8798;-42
2021/05/11 04:40:16;;;;;;;;;1.00;1.00;;;;;21.02;17.47;99464.28;4994078;28;9552;-41
2021/05/11 04:42:43;;;;;;;;;1.00;1.00;;;;;21.01;17.23;99469.00;4994859;28;8815;-41
2021/05/11 04:45:09;;;;;;;;;1.00;1.00;;;;;21.03;17.17;99472.19;4997655;28;8997;-41
2021/05/11 04:47:48;;;;;;;;;1.00;1.00;;;;;21.04;17.30;99479.28;4998747;28;8818;-41
2021/05/11 04:50:23;;;;;;;;;2.00;1.00;;;;;21.03;17.44;99477.66;5001139;28;8808;-41
2021/05/11 04:52:50;;;;;;;;;1.60;1.00;;;;;21.05;17.15;99486.34;4993662;28;8800;-41
2021/05/11 04:55:17;;;;;;;;;1.00;1.00;;;;;21.07;17.12;99488.75;4997182;28;8784;-41
2021/05/11 04:57:43;;;;;;;;;1.00;1.00;;;;;21.04;17.11;99489.47;4990883;28;8802;-41
2021/05/11 05:00:09;;;;;;;;;2.00;2.00;;;;;21.06;17.18;99496.19;4995249;28;8822;-41
2021/05/11 05:02:37;;;;;;;;;1.00;1.00;;;;;21.08;17.22;99490.38;4997051;28;8850;-41
2021/05/11 05:05:03;;;;;;;;;1.60;1.60;;;;;21.05;17.50;99483.59;5001109;28;8812;-41
2021/05/11 05:07:28;;;;;;;;;1.25;1.25;;;;;21.06;17.49;99487.97;4998039;28;8906;-41
2021/05/11 05:09:53;;;;;;;;;1.00;1.00;;;;;21.04;17.20;99487.50;4994032;28;8950;-41
2021/05/11 05:12:19;;;;;;;;;1.25;1.25;;;;;21.06;17.02;99493.44;4987451;28;9542;-41
2021/05/11 05:14:44;;;;;;;;;1.50;1.50;;;;;21.09;17.05;99487.28;4978188;28;8776;-41
2021/05/11 05:17:10;;;;;;;;;1.00;1.00;;;;;21.11;17.05;99485.00;4999988;28;8870;-41
2021/05/11 05:19:35;;;;;;;;;2.25;2.00;;;;;21.10;17.22;99494.34;4981229;28;10422;-41
2021/05/11 05:22:02;;;;;;;;;1.00;1.00;;;;;21.12;16.97;99491.28;4990353;28;8994;-41
2021/05/11 05:24:34;;;;;;;;;2.00;2.00;;;;;21.15;16.99;99493.34;4985482;28;8778;-41
2021/05/11 05:27:10;;;;;;;;;1.40;1.40;;;;;21.14;17.11;99498.03;4979637;28;8817;-41
2021/05/11 05:29:35;;;;;;;;;1.00;1.00;;;;;21.13;16.73;99496.41;4974836;28;9515;-41
2021/05/11 05:32:00;;;;;;;;;1.75;1.00;;;;;21.13;17.06;99492.88;5003436;28;8835;-41
2021/05/11 05:34:26;;;;;;;;;1.00;1.00;;;;;21.11;16.92;99495.97;5000967;28;8807;-41
2021/05/11 05:36:51;;;;;;;;;1.75;1.75;;;;;21.14;17.03;99498.03;4989506;28;8798;-41
2021/05/11 05:39:17;;;;;;;;;1.00;1.00;;;;;21.16;16.93;99503.97;4987148;28;8768;-41
2021/05/11 05:41:42;;;;;;;;;1.00;1.00;;;;;21.16;16.77;99503.19;4998495;28;8832;-41
2021/05/11 05:44:08;;;;;;;;;1.75;1.75;;;;;21.16;16.97;99512.19;4998962;28;12242;-41
2021/05/11 05:46:33;;;;;;;;;2.00;2.00;;;;;21.16;17.05;99512.19;4981502;28;8822;-41
2021/05/11 05:48:59;;;;;;;;;1.75;1.75;;;;;21.14;16.83;99517.22;4978953;28;8807;-42
2021/05/11 05:51:24;;;;;;;;;2.00;2.00;;;;;21.19;16.84;99516.19;4980691;28;9535;-41
2021/05/11 05:53:50;;;;;;;;;1.00;1.00;;;;;21.14;16.77;99517.22;4979765;28;8794;-41
2021/05/11 05:56:18;;;;;;;;;2.25;2.00;;;;;21.18;16.56;99520.09;4979802;28;11871;-41
2021/05/11 05:58:43;;;;;;;;;1.00;1.00;;;;;21.15;16.97;99524.28;5000942;28;9541;-41
2021/05/11 06:01:09;;;;;;;;;1.00;1.00;;;;;21.17;16.70;99526.69;4998738;28;8849;-41
2021/05/11 06:06:03;;;;;;;;;1.40;1.40;;;;;21.16;16.92;99528.66;4984147;28;8950;-41
2021/05/11 06:08:29;;;;;;;;;1.00;1.00;;;;;21.15;16.92;99532.53;4979243;28;8822;-42
2021/05/11 06:11:15;;;;;;;;;1.00;1.00;;;;;21.15;17.09;99523.50;4977954;28;8830;-41
2021/05/11 06:19:05;;;;;;;;;2.00;1.20;;;;;20.94;17.95;99524.38;4996076;28;8804;-42
2021/05/11 06:21:31;;;;;;;;;1.00;1.00;;;;;21.10;17.64;99516.28;5001251;28;8897;-41
2021/05/11 06:23:56;;;;;;;;;2.00;2.00;;;;;21.20;17.56;99522.50;4995444;28;8824;-41
2021/05/11 06:26:22;;;;;;;;;2.00;2.00;;;;;21.21;17.39;99521.34;4997121;28;8818;-42
2021/05/11 06:28:47;;;;;;;;;2.00;2.00;;;;;21.25;17.31;99516.75;4979903;28;8802;-41
2021/05/11 06:31:12;;;;;;;;;2.00;2.00;;;;;21.25;17.18;99514.81;4992948;28;8937;-41
2021/05/11 06:33:38;;;;;;;;;1.50;1.50;;;;;21.29;17.30;99523.97;4989636;28;8793;-42
2021/05/11 06:36:04;;;;;;;;;1.25;1.25;;;;;21.28;17.31;99522.38;4978278;28;8799;-42
2021/05/11 06:38:30;;;;;;;;;1.20;1.20;;;;;21.28;17.40;99522.38;4979251;28;8858;-42
2021/05/11 06:40:56;;;;;;;;;2.00;2.00;;;;;21.28;17.22;99527.03;4996365;28;8867;-42
2021/05/11 06:43:31;;;;;;;;;2.00;2.00;;;;;21.31;17.14;99523.63;4995940;28;10623;-42
2021/05/11 06:48:47;;;;;;;;;1.60;1.60;;;;;21.30;17.68;99519.28;4986832;28;10773;-41
2021/05/11 06:53:38;;;;;;;;;2.00;2.00;;;;;21.35;17.07;99535.50;4975657;28;8989;-40
2021/05/11 06:56:06;;;;;;;;;1.60;1.60;;;;;21.34;17.13;99540.19;4978389;28;8818;-41
2021/05/11 06:58:31;;;;;;;;;2.00;2.00;;;;;21.37;17.08;99536.78;4978721;28;9551;-41
2021/05/11 07:00:56;;;;;;;;;2.00;2.00;;;;;21.51;16.70;99541.13;4991740;28;8813;-42
2021/05/11 07:03:22;;;;;;;;;1.50;1.50;;;;;21.61;17.44;99537.13;4989949;28;8859;-41
2021/05/11 07:05:49;;;;;;;;;2.00;2.00;;;;;21.82;18.25;99545.22;4978986;28;8904;-42
2021/05/11 07:08:18;;;;;;;;;2.00;2.00;;;;;21.71;18.86;99539.41;4980981;28;8807;-42
2021/05/11 07:10:49;;;;;;;;;2.00;2.00;;;;;21.59;19.84;99544.91;4975407;28;8954;-41
2021/05/11 07:13:15;;;;;;;;;2.00;2.00;;;;;21.50;20.42;99556.00;4993851;28;8796;-41
2021/05/11 07:15:42;;;;;;;;;2.00;2.00;;;;;21.40;20.89;99553.69;4988630;28;8799;-42
2021/05/11 07:18:16;;;;;;;;;2.00;2.00;;;;;21.35;21.17;99554.72;4978153;28;8938;-41
2021/05/11 07:20:44;;;;;;;;;2.00;2.00;;;;;21.27;21.60;99553.69;4997338;28;9523;-41
2021/05/11 07:23:10;;;;;;;;;2.00;2.00;;;;;21.22;21.87;99553.13;4994445;28;8866;-42
2021/05/11 07:26:14;;;;;;;;;1.60;1.60;;;;;21.16;22.03;99558.81;4998079;28;8902;-41
2021/05/11 07:30:55;;;;;;;;;2.00;2.00;;;;;21.28;20.93;99563.53;4995958;28;8824;-42
2021/05/11 07:33:22;;;;;;;;;2.00;2.00;;;;;21.44;20.09;99560.91;4989015;28;8836;-41
2021/05/11 07:35:47;;;;;;;;;2.00;2.00;;;;;21.49;19.67;99562.63;4979401;28;8998;-41
2021/05/11 07:38:13;;;;;;;;;2.00;2.00;;;;;21.41;19.25;99566.28;4996571;28;8943;-41
2021/05/11 07:40:38;;;;;;;;;2.00;2.00;;;;;21.42;18.96;99565.13;4980188;28;8827;-41
2021/05/11 07:43:04;;;;;;;;;1.00;1.00;;;;;21.39;18.78;99561.13;4989490;28;8967;-41
2021/05/11 07:45:40;;;;;;;;;1.20;1.20;;;;;21.37;18.58;99555.16;4996347;28;9588;-41
2021/05/11 07:49:05;;;;;;;;;2.00;2.00;;;;;21.42;18.48;99565.13;4997454;28;8788;-41
2021/05/11 08:05:13;;;;;;;;;2.00;2.00;;;;;21.40;17.82;99590.16;4972824;28;8830;-41
2021/05/11 08:15:29;;;;;;;;;1.00;1.00;;;;;21.43;17.41;99594.16;4996678;28;8784;-44
2021/05/11 08:28:30;;;;;;;;;2.00;2.00;;;;;21.49;17.17;99593.59;4993321;28;8772;-44
2021/05/11 08:30:56;;;;;;;;;2.00;2.00;;;;;21.50;17.08;99589.72;4994871;28;8927;-44
2021/05/11 08:33:21;;;;;;;;;1.75;1.75;;;;;21.49;16.75;99588.13;4994472;28;8810;-44
2021/05/11 08:35:49;;;;;;;;;2.00;2.00;;;;;21.49;16.98;99588.13;4999768;28;8874;-44
2021/05/11 08:38:14;;;;;;;;;2.00;2.00;;;;;21.51;17.26;99588.59;4995983;28;8913;-44
2021/05/11 08:40:40;;;;;;;;;2.00;2.00;;;;;21.52;17.11;99590.19;4995715;28;8829;-44
2021/05/11 08:43:33;;;;;;;;;2.00;2.00;;;;;21.53;16.87;99588.25;4993798;28;9848;-44
2021/05/11 08:46:06;;;;;;;;;2.00;2.00;;;;;21.51;16.98;99596.84;4994014;28;8796;-44
2021/05/11 08:48:33;;;;;;;;;1.20;1.20;;;;;21.55;16.84;99596.94;4998436;28;8954;-44
2021/05/11 08:51:10;;;;;;;;;2.00;2.00;;;;;21.59;16.74;99603.34;4990735;28;8799;-44
2021/05/11 09:29:25;;;;;;;;;1.40;1.40;;;;;21.69;16.60;99635.03;4995824;28;9358;-44
2021/05/11 09:32:08;;;;;;;;;1.40;1.00;;;;;21.68;16.53;99638.91;4994321;28;8815;-43
2021/05/11 09:34:42;;;;;;;;;2.00;2.00;;;;;21.72;16.44;99639.81;4995653;28;8792;-44
2021/05/11 10:49:42;;;;;;;;;1.00;1.00;;;;;21.92;15.82;99636.16;4982124;28;8797;-44
2021/05/11 10:52:23;;;;;;;;;1.00;1.00;;;;;21.91;15.85;99642.78;4975851;28;8814;-44
2021/05/11 10:54:59;;;;;;;;;1.20;1.20;;;;;21.91;15.88;99642.00;4978626;28;8835;-44
2021/05/11 10:57:30;;;;;;;;;2.00;2.00;;;;;21.89;15.98;99645.09;4986613;28;8870;-43
2021/05/11 11:02:43;;;;;;;;;1.00;1.00;;;;;21.90;15.77;99665.13;4977996;28;8827;-44
2021/05/11 11:05:09;;;;;;;;;1.00;1.00;;;;;21.92;15.66;99671.06;4980557;28;8984;-44
2021/05/11 11:07:38;;;;;;;;;1.00;1.00;;;;;21.90;15.74;99668.66;4976908;28;8807;-43
2021/05/11 11:10:07;;;;;;;;;1.80;1.00;;;;;21.91;15.62;99670.25;4991653;28;8784;-43
2021/05/11 11:12:42;;;;;;;;;1.80;1.80;;;;;21.92;15.78;99682.06;4996529;28;9589;-44
2021/05/11 11:15:16;;;;;;;;;1.60;1.60;;;;;21.95;15.63;99673.13;4991816;28;8873;-43
2021/05/11 11:17:47;;;;;;;;;1.80;1.80;;;;;21.92;15.64;99676.56;4982446;28;8812;-44
2021/05/11 11:20:13;;;;;;;;;1.00;1.00;;;;;21.93;15.73;99667.16;4997631;28;9730;-43
2021/05/11 11:25:25;;;;;;;;;1.80;1.80;;;;;21.92;15.60;99668.31;4995574;28;8800;-44
2021/05/11 11:27:50;;;;;;;;;2.00;2.00;;;;;21.93;15.69;99662.50;4993974;28;8779;-44
2021/05/11 11:30:17;;;;;;;;;2.00;1.00;;;;;22.09;15.22;99665.34;4986416;28;11631;-43
2021/05/11 11:32:42;;;;;;;;;1.00;1.00;;;;;22.29;15.49;99660.09;4976288;28;8910;-44
2021/05/11 11:35:09;;;;;;;;;1.00;1.00;;;;;22.38;16.45;99669.00;5000293;28;8804;-44
2021/05/11 11:37:35;;;;;;;;;2.00;2.00;;;;;22.26;17.37;99679.97;4976111;28;8787;-44
2021/05/11 11:40:04;;;;;;;;;1.40;1.40;;;;;22.13;17.93;99692.94;4978531;28;8795;-44
2021/05/11 11:42:35;;;;;;;;;1.00;1.00;;;;;22.01;18.74;99676.44;4985716;28;8820;-44
2021/05/11 11:45:02;;;;;;;;;1.00;1.00;;;;;21.90;18.94;99665.94;4990601;28;8803;-44
2021/05/11 11:47:28;;;;;;;;;1.00;1.00;;;;;21.81;19.38;99662.50;4976559;28;8878;-44
2021/05/11 11:50:04;;;;;;;;;1.00;1.00;;;;;21.72;20.00;99646.13;4998536;28;8832;-44
2021/05/11 11:58:06;;;;;;;;;1.00;1.00;;;;;21.55;20.53;99655.38;4984848;28;8800;-44
2021/05/11 12:00:34;;;;;;;;;1.80;1.80;;;;;21.69;19.45;99665.25;4992696;28;8812;-44
2021/05/11 12:03:04;;;;;;;;;2.00;2.00;;;;;21.86;18.58;99659.53;4993162;28;8856;-43
2021/05/11 12:05:34;;;;;;;;;1.00;1.00;;;;;21.90;18.20;99654.94;4979194;28;8787;-43
2021/05/11 12:10:42;;;;;;;;;1.80;1.00;;;;;21.77;17.75;99653.31;4998002;28;8784;-44
2021/05/11 12:13:10;;;;;;;;;1.00;1.00;;;;;21.77;17.68;99647.84;4997914;28;8764;-44
2021/05/11 12:15:36;;;;;;;;;1.40;1.40;;;;;21.78;17.31;99648.66;4988689;28;9774;-43
2021/05/11 12:18:08;;;;;;;;;1.00;1.00;;;;;21.78;17.12;99638.47;5000044;28;8764;-44
2021/05/11 12:20:34;;;;;;;;;1.00;1.00;;;;;21.77;17.07;99645.09;4998624;28;8823;-44
2021/05/11 12:23:18;;;;;;;;;2.00;2.00;;;;;21.74;16.94;99648.53;4997772;28;9520;-44
2021/05/11 12:25:53;;;;;;;;;1.00;1.00;;;;;21.73;16.85;99653.22;4995925;28;8796;-44
2021/05/11 12:28:45;;;;;;;;;1.00;1.00;;;;;21.70;16.85;99669.56;4996239;28;8821;-44
2021/05/11 12:31:13;;;;;;;;;1.40;1.40;;;;;21.73;16.65;99674.38;4993514;28;8797;-44
2021/05/11 12:33:41;;;;;;;;;1.00;1.00;;;;;21.74;16.93;99670.50;4997663;28;8831;-44
2021/05/11 12:36:24;;;;;;;;;1.80;1.80;;;;;21.77;16.40;99683.53;5000152;28;8871;-44
2021/05/11 12:38:51;;;;;;;;;1.00;1.00;;;;;21.74;16.58;99685.03;5000438;28;8745;-44
2021/05/11 12:41:31;;;;;;;;;1.00;1.00;;;;;21.63;16.52;99658.34;4999402;28;9547;-44
2021/05/11 12:43:58;;;;;;;;;1.00;1.00;;;;;21.72;16.45;99670.03;4998227;28;8828;-44
2021/05/11 12:46:36;;;;;;;;;1.40;1.40;;;;;21.72;16.51;99667.28;4997124;28;8800;-45
2021/05/11 12:49:04;;;;;;;;;2.00;2.00;;;;;21.78;16.33;99656.91;4985786;28;8809;-44
2021/05/11 12:51:39;;;;;;;;;1.00;1.00;;;;;21.75;15.98;99661.09;4976660;28;9563;-44
2021/05/11 12:54:22;;;;;;;;;2.00;2.00;;;;;21.76;16.27;99649.00;4986924;28;8800;-44
2021/05/11 13:27:30;;;;;;;;;1.20;1.20;;;;;21.84;15.87;99600.59;4999160;28;8780;-44
2021/05/11 13:32:30;;;;;;;;;1.00;1.00;;;;;21.85;15.79;99613.19;4997285;28;8824;-44
2021/05/11 13:34:55;;;;;;;;;1.00;1.00;;;;;21.86;15.78;99623.00;4996442;28;8926;-43
2021/05/11 13:37:26;;;;;;;;;1.00;1.00;;;;;21.85;15.92;99622.22;4997357;28;8970;-43
2021/05/11 13:39:52;;;;;;;;;1.00;1.00;;;;;22.02;16.42;99618.44;4998759;28;8776;-45
2021/05/11 13:42:17;;;;;;;;;1.75;1.75;;;;;22.64;16.53;99621.84;4986624;28;9502;-45
2021/05/11 13:44:42;;;;;;;;;2.00;2.00;;;;;22.90;17.13;99620.56;4991944;28;8860;-45
2021/05/11 13:47:08;;;;;;;;;1.75;1.75;;;;;23.02;17.48;99627.97;4976226;28;9567;-45
2021/05/11 13:49:33;;;;;;;;;2.00;2.00;;;;;22.78;17.99;99624.19;4976033;28;8803;-46
2021/05/11 13:51:58;;;;;;;;;2.00;2.00;;;;;22.77;17.97;99633.59;4975798;28;8803;-47
2021/05/11 13:54:24;;;;;;;;;2.50;2.50;;;;;22.75;17.80;99613.09;4988999;28;8798;-47
2021/05/11 14:04:30;;;;;;;;;2.00;2.00;;;;;22.81;18.08;99639.19;4998728;28;8847;-46
2021/05/11 14:06:55;;;;;;;;;1.00;1.00;;;;;22.81;18.12;99648.25;4998347;28;8812;-44
2021/05/11 14:09:21;;;;;;;;;2.00;2.00;;;;;22.84;18.21;99671.50;4997101;28;9534;-45
2021/05/11 14:11:46;;;;;;;;;1.60;1.60;;;;;22.92;18.20;99670.53;4999088;28;8850;-45
2021/05/11 14:14:13;;;;;;;;;2.00;2.00;;;;;22.65;18.67;99664.66;4998998;28;9035;-43
2021/05/11 14:16:39;;;;;;;;;2.00;2.00;;;;;22.60;18.80;99664.94;4998221;28;8855;-45
2021/05/11 14:19:04;;;;;;;;;2.00;2.00;;;;;23.00;18.46;99664.06;4998323;28;8823;-43
2021/05/11 14:21:30;;;;;;;;;2.00;2.00;;;;;22.44;20.18;99653.06;5000578;28;8788;-45
2021/05/11 14:23:56;;;;;;;;;2.00;2.00;;;;;23.04;19.48;99648.47;4995493;28;8791;-45
2021/05/11 14:26:23;;;;;;;;;2.00;2.00;;;;;23.14;19.50;99640.88;4975169;28;8945;-44
2021/05/11 14:28:49;;;;;;;;;2.00;2.00;;;;;23.29;19.57;99637.38;4978962;28;8795;-43
2021/05/11 14:31:15;;;;;;;;;2.75;2.75;;;;;23.29;19.55;99626.34;4978045;28;8834;-42
2021/05/11 14:33:40;;;;;;;;;2.00;2.00;;;;;23.30;19.63;99621.66;4978332;28;8876;-46
2021/05/11 14:36:07;;;;;;;;;2.00;2.00;;;;;23.18;19.41;99617.00;4978658;28;11542;-50
2021/05/11 14:38:37;;;;;;;;;2.20;2.00;;;;;23.33;19.32;99623.69;4981884;28;8834;-47
2021/05/11 14:41:03;;;;;;;;;2.00;2.00;;;;;23.36;19.53;99639.47;5000541;28;8887;-47
2021/05/11 14:43:33;;;;;;;;;3.00;2.40;;;;;23.31;19.52;99634.25;4996766;28;8866;-48
2021/05/11 14:45:59;;;;;;;;;2.00;2.00;;;;;23.42;19.47;99630.63;4984748;28;8822;-46
2021/05/11 14:48:26;;;;;;;;;2.00;2.00;;;;;23.49;19.75;99624.50;4987392;28;8862;-48
2021/05/11 14:50:51;;;;;;;;;2.20;2.20;;;;;22.01;24.12;99619.56;4997698;28;8831;-44
2021/05/11 14:53:17;;;;;;;;;3.00;3.00;;;;;21.42;26.34;99611.75;4998082;28;8794;-44
2021/05/11 14:55:42;;;;;;;;;2.50;2.50;;;;;21.35;26.95;99637.00;4995125;28;8979;-43
2021/05/11 14:58:07;;;;;;;;;3.00;2.00;;;;;21.26;27.04;99628.88;4986253;28;10157;-44
2021/05/11 15:00:33;;;;;;;;;2.00;2.00;;;;;21.23;26.98;99626.03;4976354;28;8787;-43
2021/05/11 15:02:59;;;;;;;;;2.00;2.00;;;;;21.03;27.25;99611.25;4984270;28;8816;-43
2021/05/11 15:05:24;;;;;;;;;3.00;3.00;;;;;21.07;27.72;99629.44;4995265;28;8803;-45
2021/05/11 15:07:50;;;;;;;;;2.00;2.00;;;;;21.16;28.19;99637.56;5001278;28;8874;-43
2021/05/11 15:10:16;;;;;;;;;2.25;2.25;;;;;21.17;27.75;99641.91;4994044;28;8784;-47
2021/05/11 15:12:42;;;;;;;;;3.00;3.00;;;;;21.05;27.54;99645.41;4994990;28;8943;-45
2021/05/11 15:15:09;;;;;;;;;3.00;3.00;;;;;20.80;28.36;99656.28;4992006;28;9550;-44
2021/05/11 15:20:00;;;;;;;;;3.40;3.40;;;;;21.11;26.97;99646.81;4999659;28;8997;-44
2021/05/11 15:22:27;;;;;;;;;2.00;2.00;;;;;22.27;24.49;99632.16;4995462;28;8872;-43
2021/05/11 15:24:54;;;;;;;;;2.00;2.00;;;;;22.68;23.08;99638.44;4996934;28;8793;-43
2021/05/11 15:27:20;;;;;;;;;3.00;2.80;;;;;22.85;22.54;99640.88;4994980;28;8797;-43
2021/05/11 15:29:45;;;;;;;;;2.80;2.80;;;;;22.99;22.50;99639.66;4999255;28;8796;-45
2021/05/11 15:32:39;;;;;;;;;3.00;3.00;;;;;23.10;22.15;99645.50;5000803;28;9612;-43
2021/05/11 15:35:15;;;;;;;;;2.40;2.40;;;;;23.19;21.84;99646.94;4997563;28;8837;-44
2021/05/11 15:37:41;;;;;;;;;2.00;2.00;;;;;23.23;21.52;99649.78;4996032;28;8830;-43
2021/05/11 15:40:09;;;;;;;;;3.00;3.00;;;;;23.28;21.57;99640.47;4982354;28;8833;-43
2021/05/11 15:42:38;;;;;;;;;3.80;3.60;;;;;23.35;21.38;99638.69;4976881;28;8958;-41
2021/05/11 15:45:05;;;;;;;;;3.00;3.00;;;;;22.94;21.81;99632.47;4983933;28;8791;-45
2021/05/11 15:47:30;;;;;;;;;2.00;2.00;;;;;22.91;21.31;99629.63;4997649;28;8923;-45
2021/05/11 15:49:56;;;;;;;;;2.00;2.00;;;;;22.91;20.78;99635.94;4998090;28;8802;-45
2021/05/11 15:52:21;;;;;;;;;2.00;2.00;;;;;22.93;20.31;99652.88;4997966;28;8919;-45
2021/05/11 15:54:48;;;;;;;;;3.00;3.00;;;;;22.95;20.00;99656.06;4983678;28;8855;-45
2021/05/11 15:57:14;;;;;;;;;2.60;2.20;;;;;22.97;19.77;99659.28;4976635;28;8803;-44
2021/05/11 15:59:39;;;;;;;;;2.00;2.00;;;;;23.01;19.50;99659.41;4973835;28;8777;-44
2021/05/11 16:02:05;;;;;;;;;2.25;2.25;;;;;23.12;19.63;99654.19;4979749;28;8830;-45
2021/05/11 16:04:30;;;;;;;;;2.00;2.00;;;;;23.09;20.37;99660.41;4976880;28;8813;-44
2021/05/11 16:06:55;;;;;;;;;2.75;2.75;;;;;23.00;21.12;99666.81;4974254;28;8786;-45
2021/05/11 16:09:21;;;;;;;;;2.00;2.00;;;;;22.99;21.46;99662.50;4974263;28;8816;-45
2021/05/11 16:11:47;;;;;;;;;3.00;3.00;;;;;22.95;22.06;99671.78;4981276;28;8767;-44
2021/05/11 16:14:12;;;;;;;;;2.00;2.00;;;;;22.95;22.37;99660.78;4996004;28;8820;-45
2021/05/11 16:16:37;;;;;;;;;2.00;2.00;;;;;22.92;22.70;99656.78;4977842;28;8841;-45
2021/05/11 16:19:03;;;;;;;;;2.00;2.00;;;;;22.88;22.94;99647.63;4977325;28;8918;-45
2021/05/11 16:21:28;;;;;;;;;2.25;2.00;;;;;22.82;23.35;99646.28;4990081;28;9563;-45